createdAt,value
2023-03-06T00:00:40.827Z,45.75
2023-03-06T00:05:45.793Z,35.90
2023-03-06T00:10:48.508Z,34.10
2023-03-06T00:15:51.333Z,41.55
2023-03-06T00:20:55.640Z,42.20
2023-03-06T00:25:58.462Z,32.42
2023-03-06T00:31:01.291Z,34.65
2023-03-06T00:36:07.469Z,66.03
2023-03-06T00:41:10.939Z,39.83
2023-03-06T00:46:13.781Z,28.75
2023-03-06T00:51:19.727Z,32.05
2023-03-06T00:56:22.656Z,35.92
2023-03-06T01:01:25.510Z,31.50
2023-03-06T01:06:29.914Z,28.48
2023-03-06T01:11:33.100Z,26.38
2023-03-06T01:16:36.309Z,29.20
2023-03-06T01:21:40.505Z,29.90
2023-03-06T01:26:43.337Z,28.95
2023-03-06T01:31:46.127Z,27.25
2023-03-06T01:36:50.792Z,28.42
2023-03-06T01:41:53.725Z,27.13
2023-03-06T01:46:56.562Z,30.08
2023-03-06T01:52:04.453Z,25.65
2023-03-06T01:57:13.077Z,28.15
2023-03-06T02:02:16.707Z,32.72
2023-03-06T02:07:22.707Z,33.60
2023-03-06T02:12:25.860Z,32.42
2023-03-06T02:17:29.108Z,32.97
2023-03-06T02:22:38.883Z,36.10
2023-03-06T02:27:43.408Z,34.70
2023-03-06T02:32:46.881Z,35.20
2023-03-06T02:37:50.300Z,32.85
2023-03-06T02:42:57.149Z,35.38
2023-03-06T02:47:59.907Z,35.50
2023-03-06T02:53:02.821Z,29.92
2023-03-06T02:58:08.661Z,28.30
2023-03-06T03:03:11.623Z,29.30
2023-03-06T03:08:14.559Z,29.10
2023-03-06T03:13:19.535Z,30.08
2023-03-06T03:18:23.729Z,28.27
2023-03-06T03:23:27.595Z,28.95
2023-03-06T03:28:34.832Z,29.13
2023-03-06T03:33:38.015Z,28.10
2023-03-06T03:38:41.082Z,29.30
2023-03-06T03:43:45.711Z,29.23
2023-03-06T03:48:48.522Z,32.53
2023-03-06T03:53:52.390Z,30.60
2023-03-06T03:59:00.540Z,30.67
2023-03-06T04:04:09.522Z,33.72
2023-03-06T04:09:13.350Z,35.72
2023-03-06T04:14:17.608Z,37.63
2023-03-06T04:19:20.491Z,31.40
2023-03-06T04:24:23.483Z,36.17
2023-03-06T04:29:27.744Z,30.80
2023-03-06T04:34:30.818Z,31.65
2023-03-06T04:39:33.703Z,31.08
2023-03-06T04:44:38.440Z,30.55
2023-03-06T04:49:41.280Z,34.83
2023-03-06T04:54:45.977Z,41.72
2023-03-06T04:59:50.633Z,40.58
2023-03-06T05:04:53.387Z,36.35
2023-03-06T05:09:56.301Z,33.17
2023-03-06T05:15:00.415Z,34.22
2023-03-06T05:20:06.860Z,36.13
2023-03-06T05:25:11.915Z,43.08
2023-03-06T05:30:16.893Z,58.30
2023-03-06T05:35:22.814Z,39.43
2023-03-06T05:40:25.933Z,35.88
2023-03-06T05:45:30.052Z,34.67
2023-03-06T05:50:32.903Z,31.52
2023-03-06T05:55:35.711Z,31.73
2023-03-06T06:00:39.926Z,39.47
2023-03-06T06:05:43.548Z,29.52
2023-03-06T06:10:46.241Z,35.83
2023-03-06T06:15:51.436Z,39.20
2023-03-06T06:20:55.912Z,38.28
2023-03-06T06:26:00.572Z,38.03
2023-03-06T06:31:10.706Z,37.50
2023-03-06T06:36:18.453Z,41.17
2023-03-06T06:41:50.752Z,58.38
2023-03-06T06:52:09.918Z,60.15
2023-03-06T06:57:13.445Z,46.35
2023-03-06T07:02:17.662Z,45.60
2023-03-06T07:07:20.374Z,46.08
2023-03-06T07:12:23.123Z,43.13
2023-03-06T07:17:27.434Z,45.42
2023-03-06T07:22:41.417Z,40.35
2023-03-06T07:27:54.598Z,36.13
2023-03-06T07:33:01.818Z,44.53
2023-03-06T07:38:04.725Z,38.17
2023-03-06T07:43:18.841Z,34.10
2023-03-06T07:48:32.485Z,38.72
2023-03-06T07:53:36.672Z,33.25
2023-03-06T07:58:41.715Z,39.75
2023-03-06T08:03:51.728Z,48.88
2023-03-06T08:08:58.608Z,37.95
2023-03-06T08:14:01.675Z,36.15
2023-03-06T08:19:06.129Z,31.75
2023-03-06T08:24:09.160Z,36.30
2023-03-06T08:29:13.161Z,33.30
2023-03-06T08:34:19.942Z,41.05
2023-03-06T08:39:24.053Z,39.45
2023-03-06T08:44:28.508Z,34.55
2023-03-06T08:49:36.027Z,38.05
2023-03-06T08:54:41.113Z,37.60
2023-03-06T08:59:43.824Z,32.63
2023-03-06T09:04:48.048Z,46.15
2023-03-06T09:09:51.079Z,33.20
2023-03-06T09:14:54.633Z,38.15
2023-03-06T09:19:58.802Z,35.05
2023-03-06T09:25:02.069Z,44.08
2023-03-06T09:30:10.040Z,61.08
2023-03-06T09:35:15.546Z,42.03
2023-03-06T09:40:27.139Z,41.13
2023-03-06T09:45:41.011Z,38.13
2023-03-06T09:50:52.353Z,40.05
2023-03-06T09:56:03.914Z,40.47
2023-03-06T10:01:11.926Z,35.92
2023-03-06T10:06:21.030Z,35.40
2023-03-06T10:11:28.815Z,41.38
2023-03-06T10:16:35.312Z,34.17
2023-03-06T10:21:48.459Z,42.08
2023-03-06T10:26:56.139Z,34.03
2023-03-06T10:32:04.241Z,34.10
2023-03-06T10:37:18.642Z,36.42
2023-03-06T10:42:22.128Z,33.95
2023-03-06T10:47:32.089Z,33.25
2023-03-06T10:52:37.196Z,33.25
2023-03-06T10:57:41.653Z,35.15
2023-03-06T11:02:44.900Z,31.77
2023-03-06T11:07:57.374Z,32.45
2023-03-06T11:13:06.174Z,32.58
2023-03-06T11:18:31.004Z,34.95
2023-03-06T11:23:40.085Z,35.35
2023-03-06T11:28:47.130Z,30.65
2023-03-06T11:33:53.647Z,31.63
2023-03-06T11:38:58.109Z,31.90
2023-03-06T11:44:13.732Z,43.55
2023-03-06T11:49:23.988Z,34.05
2023-03-06T11:54:28.410Z,27.58
2023-03-06T11:59:52.933Z,30.90
2023-03-06T12:05:11.471Z,28.33
2023-03-06T12:10:20.830Z,29.60
2023-03-06T12:15:35.870Z,23.35
2023-03-06T12:20:53.720Z,26.17
2023-03-06T12:26:05.007Z,22.93
2023-03-06T12:31:27.031Z,20.13
2023-03-06T12:36:44.231Z,24.20
2023-03-06T12:42:02.503Z,24.13
2023-03-06T12:47:10.964Z,26.10
2023-03-06T12:52:30.298Z,21.25
2023-03-06T12:57:35.209Z,25.02
2023-03-06T13:03:05.956Z,23.30
2023-03-06T13:08:28.247Z,20.25
2023-03-06T13:13:35.363Z,27.92
2023-03-06T13:18:59.684Z,23.98
2023-03-06T13:24:07.259Z,39.35
2023-03-06T13:29:42.586Z,26.15
2023-03-06T13:34:49.277Z,34.67
2023-03-06T13:40:28.944Z,30.83
2023-03-06T13:45:38.578Z,26.08
2023-03-06T13:50:44.747Z,28.30
2023-03-06T13:55:59.966Z,25.52
2023-03-06T14:01:22.036Z,30.02
2023-03-06T14:06:52.043Z,27.02
2023-03-06T14:11:58.587Z,26.42
2023-03-06T14:17:05.070Z,28.95
2023-03-06T14:22:18.288Z,31.27
2023-03-06T14:27:22.321Z,31.83
2023-03-06T14:32:28.523Z,46.63
2023-03-06T14:37:40.812Z,34.38
2023-03-06T14:42:44.418Z,72.80
2023-03-06T14:47:51.853Z,46.53
2023-03-06T14:52:59.313Z,39.50
2023-03-06T14:58:06.261Z,44.35
2023-03-06T15:03:17.552Z,48.78
2023-03-06T15:08:26.675Z,45.80
2023-03-06T15:13:31.098Z,43.40
2023-03-06T15:18:36.235Z,46.42
2023-03-06T15:23:43.449Z,43.58
2023-03-06T15:28:59.989Z,37.33
2023-03-06T15:34:27.640Z,33.22
2023-03-06T15:39:34.642Z,40.28
2023-03-06T15:44:37.607Z,37.10
2023-03-06T15:49:41.234Z,35.03
2023-03-06T15:54:46.068Z,38.25
2023-03-06T15:59:48.993Z,37.70
2023-03-06T16:04:53.066Z,29.60
2023-03-06T16:09:57.329Z,32.33
2023-03-06T16:15:02.671Z,37.22
2023-03-06T16:20:07.768Z,32.67
2023-03-06T16:25:13.131Z,46.88
2023-03-06T16:30:18.930Z,34.80
2023-03-06T16:35:22.518Z,30.58
2023-03-06T16:40:29.382Z,32.88
2023-03-06T16:45:38.008Z,31.40
2023-03-06T16:50:41.758Z,28.73
2023-03-06T16:55:46.511Z,27.30
2023-03-06T17:00:50.219Z,41.72
2023-03-06T17:05:52.962Z,44.80
2023-03-06T17:10:57.482Z,40.80
2023-03-06T17:16:01.942Z,54.53
2023-03-06T17:21:05.545Z,29.05
2023-03-06T17:26:12.525Z,25.42
2023-03-06T17:31:17.743Z,29.52
2023-03-06T17:36:20.737Z,26.20
2023-03-06T17:41:25.966Z,48.47
2023-03-06T17:46:28.866Z,42.80
2023-03-06T17:51:31.628Z,78.65
2023-03-06T17:56:37.856Z,68.32
2023-03-06T18:01:41.056Z,52.53
2023-03-06T18:06:43.793Z,46.90
2023-03-06T18:11:48.093Z,50.95
2023-03-06T18:16:51.591Z,53.88
2023-03-06T18:21:54.401Z,102.20
2023-03-06T18:27:04.205Z,31.92
2023-03-06T18:32:09.518Z,31.65
2023-03-06T18:37:14.262Z,48.80
2023-03-06T18:42:18.646Z,35.65
2023-03-06T18:47:21.708Z,34.00
2023-03-06T18:52:24.477Z,31.73
2023-03-06T18:57:30.310Z,30.50
2023-03-06T19:02:33.302Z,31.33
2023-03-06T19:07:36.204Z,32.78
2023-03-06T19:12:40.415Z,39.28
2023-03-06T19:17:43.212Z,37.80
2023-03-06T19:22:46.509Z,42.50
2023-03-06T19:27:50.809Z,32.58
2023-03-06T19:32:54.492Z,37.85
2023-03-06T19:37:57.324Z,38.88
2023-03-06T19:43:01.638Z,34.67
2023-03-06T19:48:05.918Z,37.30
2023-03-06T19:53:11.018Z,37.67
2023-03-06T19:58:16.144Z,38.38
2023-03-06T20:03:19.913Z,38.25
2023-03-06T20:08:22.863Z,38.35
2023-03-06T20:13:27.345Z,38.00
2023-03-06T20:18:30.501Z,39.75
2023-03-06T20:23:33.903Z,36.83
2023-03-06T20:28:39.556Z,36.47
2023-03-06T20:33:43.501Z,54.38
2023-03-06T20:38:47.491Z,39.25
2023-03-06T20:43:51.880Z,35.28
2023-03-06T20:48:55.977Z,45.78
2023-03-06T20:53:59.840Z,44.97
2023-03-06T20:59:04.604Z,44.05
2023-03-06T21:04:09.516Z,41.30
2023-03-06T21:09:13.022Z,45.50
2023-03-06T21:14:17.330Z,38.13
2023-03-06T21:19:22.793Z,40.83
2023-03-06T21:24:26.968Z,40.85
2023-03-06T21:29:31.252Z,39.65
2023-03-06T21:34:34.079Z,58.08
2023-03-06T21:39:38.583Z,44.55
2023-03-06T21:44:42.760Z,51.50
2023-03-06T21:49:46.597Z,47.20
2023-03-06T21:54:49.849Z,50.85
2023-03-06T21:59:54.060Z,56.75
2023-03-06T22:04:56.875Z,48.53
2023-03-06T22:09:59.683Z,51.25
2023-03-06T22:15:04.178Z,54.78
2023-03-06T22:20:08.605Z,56.75
2023-03-06T22:25:11.997Z,49.45
2023-03-06T22:30:17.843Z,51.80
2023-03-06T22:35:21.580Z,52.63
2023-03-06T22:40:25.857Z,57.08
2023-03-06T22:45:30.078Z,65.57
2023-03-06T22:50:34.757Z,54.88
2023-03-06T22:55:37.529Z,53.45
2023-03-06T23:00:41.716Z,56.58
2023-03-06T23:05:44.569Z,60.75
2023-03-06T23:10:47.522Z,53.83
2023-03-06T23:16:10.901Z,59.67
2023-03-06T23:21:34.184Z,59.03
2023-03-06T23:26:55.350Z,57.53
2023-03-06T23:31:59.497Z,58.47
2023-03-06T23:37:02.291Z,55.83
2023-03-06T23:42:05.473Z,65.60
2023-03-06T23:47:10.277Z,59.80
2023-03-06T23:52:13.003Z,63.72
2023-03-06T23:57:15.789Z,62.75
